Time;durP1;ratioP1;P1;durP2;ratioP2;P2;SDS_P1;SDS_P2;PMS_P1;PMS_P2;Temp;Humidity;BMP_temperature;BMP_pressure;BME280_temperature;BME280_humidity;BME280_pressure;Samples;Min_cycle;Max_cycle;Signal;HPM_P1;HPM_P2
2022/08/08 00:00:15;;;;;;;;;;;;;;;17.54;100.00;100105.16;5072621;28;20409;-81
2022/08/08 00:02:55;;;;;;;;;;;;;;;16.71;100.00;100113.75;5056169;28;19924;-81
2022/08/08 00:05:25;;;;;;;;;;;;;;;17.50;100.00;100103.66;5072417;28;20298;-81
2022/08/08 00:08:07;;;;;;;;;;;;;;;17.95;100.00;100107.19;5072910;28;19928;-81
2022/08/08 00:10:42;;;;;;;;;;;;;;;18.17;100.00;100105.34;5073037;28;20011;-82
2022/08/08 00:13:23;;;;;;;;;;;;;;;18.35;100.00;100101.97;5089595;28;19935;-82
2022/08/08 00:16:11;;;;;;;;;;;;;;;18.32;100.00;100098.00;5073926;28;19931;-82
2022/08/08 00:19:13;;;;;;;;;;;;;;;17.63;100.00;100096.03;5052428;28;19932;-82
2022/08/08 00:21:44;;;;;;;;;;;;;;;16.60;100.00;100110.41;5055810;28;20039;-82
2022/08/08 00:24:16;;;;;;;;;;;;;;;16.87;100.00;100110.97;5072588;28;19924;-81
2022/08/08 00:26:47;;;;;;;;;;;;;;;17.59;100.00;100106.63;5039227;28;19931;-81
2022/08/08 00:29:17;;;;;;;;;;;;;;;17.85;100.00;100108.31;5072960;28;19929;-82
2022/08/08 00:31:49;;;;;;;;;;;;;;;18.04;100.00;100112.22;5072753;28;19951;-81
2022/08/08 00:37:20;;;;;;;;;;;;;;;16.59;100.00;100111.63;5055819;28;19925;-82
2022/08/08 00:39:52;;;;;;;;;;;;;;;16.64;100.00;100119.56;5106221;28;19924;-81
2022/08/08 00:42:25;;;;;;;;;;;;;;;17.58;100.00;100122.00;5055676;28;20299;-81
2022/08/08 00:45:08;;;;;;;;;;;;;;;17.64;100.00;100115.38;5072312;28;19931;-81
2022/08/08 00:48:04;;;;;;;;;;;;;;;17.75;100.00;100104.53;5055762;28;19931;-81
2022/08/08 00:50:34;;;;;;;;;;;;;;;17.95;100.00;100101.53;5034371;28;20421;-81
2022/08/08 00:53:20;;;;;;;;;;;;;;;17.86;100.00;100105.03;5055689;28;19931;-81
2022/08/08 00:55:47;;;;;;;;;;;;;;;17.91;100.00;100103.69;5072304;28;19931;-82
2022/08/08 00:58:33;;;;;;;;;;;;;;;18.06;100.00;100104.84;5073090;28;19924;-82
2022/08/08 01:01:25;;;;;;;;;;;;;;;16.68;100.00;100111.81;5040920;28;20023;-82
2022/08/08 01:04:20;;;;;;;;;;;;;;;15.82;100.00;100143.13;5056569;28;20349;-82
2022/08/08 01:07:38;;;;;;;;;;;;;;;17.17;100.00;100130.34;5072208;28;19932;-81
2022/08/08 01:10:35;;;;;;;;;;;;;;;17.27;100.00;100118.78;5072281;28;19929;-81
2022/08/08 01:13:21;;;;;;;;;;;;;;;17.48;100.00;100128.72;5055912;28;20330;-82
2022/08/08 01:16:05;;;;;;;;;;;;;;;17.37;100.00;100128.22;5059177;28;20022;-82
2022/08/08 01:18:42;;;;;;;;;;;;;;;17.16;100.00;100131.59;5058726;28;20002;-82
2022/08/08 01:21:45;;;;;;;;;;;;;;;17.38;100.00;100129.78;5075441;28;19929;-82
2022/08/08 01:24:29;;;;;;;;;;;;;;;17.61;100.00;100135.25;4985624;28;19929;-82
2022/08/08 01:27:15;;;;;;;;;;;;;;;17.69;100.00;100128.16;5034712;28;19933;-82
2022/08/08 01:29:57;;;;;;;;;;;;;;;17.38;100.00;100135.44;5018422;28;20010;-82
2022/08/08 01:32:26;;;;;;;;;;;;;;;16.20;100.00;100141.50;5034657;28;19929;-81
2022/08/08 01:35:19;;;;;;;;;;;;;;;16.30;100.00;100147.34;5034460;28;19932;-82
2022/08/08 01:38:07;;;;;;;;;;;;;;;17.03;100.00;100142.00;5032673;28;19931;-82
2022/08/08 01:41:01;;;;;;;;;;;;;;;17.40;100.00;100135.81;5017930;28;19965;-82
2022/08/08 01:43:37;;;;;;;;;;;;;;;16.23;100.00;100137.81;5000810;28;19928;-82
2022/08/08 01:46:28;;;;;;;;;;;;;;;15.82;100.00;100139.50;5017533;28;19925;-82
2022/08/08 01:49:01;;;;;;;;;;;;;;;16.18;100.00;100135.50;5034228;28;19933;-82
2022/08/08 01:51:47;;;;;;;;;;;;;;;15.90;100.00;100140.94;5017770;28;19929;-82
2022/08/08 01:54:24;;;;;;;;;;;;;;;15.39;100.00;100147.97;5017833;28;19932;-82
2022/08/08 01:56:54;;;;;;;;;;;;;;;15.87;100.00;100155.91;5017584;28;20396;-82
2022/08/08 01:59:33;;;;;;;;;;;;;;;16.61;100.00;100159.97;5057436;28;19924;-82
2022/08/08 02:02:20;;;;;;;;;;;;;;;16.79;100.00;100154.69;5041779;28;19928;-82
2022/08/08 02:05:12;;;;;;;;;;;;;;;16.94;100.00;100145.44;5091360;28;19931;-82
2022/08/08 02:07:56;;;;;;;;;;;;;;;16.93;100.00;100132.56;5041738;28;19924;-82
2022/08/08 02:10:34;;;;;;;;;;;;;;;16.04;100.00;100149.88;5091639;28;19974;-82
2022/08/08 02:13:09;;;;;;;;;;;;;;;15.94;100.00;100150.91;5074779;28;20399;-82
2022/08/08 02:15:44;;;;;;;;;;;;;;;16.05;100.00;100142.25;5041686;28;19924;-82
2022/08/08 02:18:18;;;;;;;;;;;;;;;15.14;100.00;100152.41;5057975;28;19924;-82
2022/08/08 02:23:45;;;;;;;;;;;;;;;15.42;100.00;100152.72;5074658;28;19925;-81
2022/08/08 02:26:25;;;;;;;;;;;;;;;15.68;100.00;100149.03;5090384;28;19931;-82
2022/08/08 02:29:01;;;;;;;;;;;;;;;15.48;100.00;100142.56;5058235;28;19924;-82
2022/08/08 02:31:32;;;;;;;;;;;;;;;15.69;100.00;100150.59;5074834;28;20330;-82
2022/08/08 02:34:05;;;;;;;;;;;;;;;15.93;100.00;100140.84;5057843;28;19928;-82
2022/08/08 02:36:50;;;;;;;;;;;;;;;15.83;100.00;100144.69;5074217;28;20631;-82
2022/08/08 02:39:36;;;;;;;;;;;;;;;16.31;100.00;100141.28;5074166;28;19962;-82
2022/08/08 02:42:22;;;;;;;;;;;;;;;16.37;100.00;100135.91;5057605;28;19928;-82
2022/08/08 02:45:11;;;;;;;;;;;;;;;16.23;100.00;100140.63;5074244;28;20031;-82
2022/08/08 02:47:54;;;;;;;;;;;;;;;16.14;100.00;100146.06;5057397;28;19932;-82
2022/08/08 02:50:31;;;;;;;;;;;;;;;16.22;100.00;100138.25;5040604;28;19928;-82
2022/08/08 02:53:11;;;;;;;;;;;;;;;16.26;100.00;100133.31;5057246;28;20458;-82
2022/08/08 02:56:00;;;;;;;;;;;;;;;16.10;100.00;100142.50;5057255;28;19929;-82
2022/08/08 02:58:43;;;;;;;;;;;;;;;15.96;100.00;100148.44;5073837;28;19924;-82
2022/08/08 03:01:29;;;;;;;;;;;;;;;15.95;100.00;100146.06;5057333;28;20383;-82
2022/08/08 03:04:16;;;;;;;;;;;;;;;16.27;100.00;100149.81;5090498;28;19947;-82
2022/08/08 03:06:54;;;;;;;;;;;;;;;16.13;100.00;100147.28;5056724;28;19931;-82
2022/08/08 03:09:41;;;;;;;;;;;;;;;16.04;100.00;100144.25;5073960;28;20028;-82
2022/08/08 03:12:08;;;;;;;;;;;;;;;16.06;100.00;100141.00;5090452;28;19978;-82
2022/08/08 03:14:55;;;;;;;;;;;;;;;15.88;100.00;100141.38;5056684;28;19962;-82
2022/08/08 03:17:33;;;;;;;;;;;;;;;15.92;100.00;100142.09;5073908;28;19925;-81
2022/08/08 03:20:04;;;;;;;;;;;;;;;15.97;100.00;100140.78;5023584;28;19925;-82
2022/08/08 03:22:52;;;;;;;;;;;;;;;15.94;100.00;100142.47;5073757;28;20014;-81
2022/08/08 03:25:22;;;;;;;;;;;;;;;15.35;100.00;100146.41;5041037;28;19929;-81
2022/08/08 03:27:54;;;;;;;;;;;;;;;15.04;100.00;100148.53;5073268;28;19991;-81
2022/08/08 03:30:22;;;;;;;;;;;;;;;15.05;100.00;100150.16;5090428;28;19971;-82
2022/08/08 03:35:37;;;;;;;;;;;;;;;15.81;100.00;100147.13;5039841;28;19931;-82
2022/08/08 03:38:06;;;;;;;;;;;;;;;15.24;100.00;100146.59;5056445;28;19924;-82
2022/08/08 03:40:33;;;;;;;;;;;;;;;15.56;100.00;100151.66;5073015;28;19924;-82
2022/08/08 03:43:03;;;;;;;;;;;;;;;15.64;100.00;100151.13;5056091;28;19978;-81
2022/08/08 03:45:30;;;;;;;;;;;;;;;15.72;100.00;100148.97;5106917;28;19924;-82
2022/08/08 03:47:57;;;;;;;;;;;;;;;15.04;100.00;100157.00;5073452;28;20363;-81
2022/08/08 03:50:26;;;;;;;;;;;;;;;15.27;100.00;100151.38;5072957;28;19924;-81
2022/08/08 03:52:54;;;;;;;;;;;;;;;15.57;100.00;100154.06;5072901;28;19925;-81
2022/08/08 03:55:22;;;;;;;;;;;;;;;15.72;100.00;100148.97;5073461;28;20279;-81
2022/08/08 03:57:51;;;;;;;;;;;;;;;15.78;100.00;100148.00;5056388;28;20023;-81
2022/08/08 04:00:20;;;;;;;;;;;;;;;15.95;100.00;100143.22;5089807;28;19930;-82
2022/08/08 04:03:02;;;;;;;;;;;;;;;15.83;100.00;100147.50;5072902;28;19926;-81
2022/08/08 04:05:38;;;;;;;;;;;;;;;15.09;100.00;100159.31;5039892;28;19951;-81
2022/08/08 04:08:15;;;;;;;;;;;;;;;15.41;100.00;100156.78;5056826;28;20330;-81
2022/08/08 04:10:45;;;;;;;;;;;;;;;15.68;100.00;100160.28;5055712;28;19924;-81
2022/08/08 04:13:15;;;;;;;;;;;;;;;14.95;100.00;100150.34;5071958;28;19956;-81
2022/08/08 04:15:43;;;;;;;;;;;;;;;14.54;100.00;100158.22;5071679;28;19931;-77
2022/08/08 04:18:10;;;;;;;;;;;;;;;15.04;100.00;100159.03;5072217;28;19924;-76
2022/08/08 04:20:37;;;;;;;;;;;;;;;15.15;100.00;100151.97;5071920;28;19960;-77
2022/08/08 04:23:04;;;;;;;;;;;;;;;15.27;100.00;100148.56;5071883;28;19924;-77
2022/08/08 04:25:31;;;;;;;;;;;;;;;15.28;100.00;100147.31;5071662;28;19925;-77
2022/08/08 04:27:58;;;;;;;;;;;;;;;14.95;100.00;100159.56;5072344;28;19924;-76
2022/08/08 04:30:26;;;;;;;;;;;;;;;14.45;100.00;100167.97;5072243;28;20032;-77
2022/08/08 04:32:53;;;;;;;;;;;;;;;14.57;100.00;100169.38;5055653;28;19925;-77
2022/08/08 04:35:25;;;;;;;;;;;;;;;14.51;100.00;100165.47;5072351;28;20283;-77
2022/08/08 04:37:53;;;;;;;;;;;;;;;14.43;100.00;100175.25;5055579;28;19924;-76
2022/08/08 04:40:25;;;;;;;;;;;;;;;14.79;100.00;100170.69;5055410;28;20036;-76
2022/08/08 04:42:56;;;;;;;;;;;;;;;14.79;100.00;100175.50;5055372;28;19947;-77
2022/08/08 04:45:34;;;;;;;;;;;;;;;14.80;100.00;100172.25;5072242;28;20383;-77
2022/08/08 04:48:04;;;;;;;;;;;;;;;15.02;100.00;100176.34;5072410;28;19967;-77
2022/08/08 04:50:35;;;;;;;;;;;;;;;14.45;100.00;100172.78;5059356;28;19931;-77
2022/08/08 04:53:03;;;;;;;;;;;;;;;14.17;100.00;100187.19;5059459;28;19956;-77
2022/08/08 04:55:32;;;;;;;;;;;;;;;14.44;100.00;100182.44;5059058;28;19925;-77
2022/08/08 04:57:59;;;;;;;;;;;;;;;15.01;100.00;100177.53;5075759;28;19925;-77
2022/08/08 05:00:26;;;;;;;;;;;;;;;14.62;100.00;100174.53;5075875;28;19931;-77
2022/08/08 05:02:53;;;;;;;;;;;;;;;14.30;100.00;100180.63;5059320;28;19924;-77
2022/08/08 05:05:20;;;;;;;;;;;;;;;14.29;100.00;100176.22;5059129;28;20283;-77
2022/08/08 05:07:49;;;;;;;;;;;;;;;15.02;100.00;100179.16;5075718;28;20384;-77
2022/08/08 05:10:16;;;;;;;;;;;;;;;15.26;100.00;100175.13;5075306;28;19982;-77
2022/08/08 05:12:43;;;;;;;;;;;;;;;15.55;100.00;100183.88;5076635;28;19931;-77
2022/08/08 05:15:11;;;;;;;;;;;;;;;15.74;100.00;100192.38;5058750;28;20445;-77
2022/08/08 05:17:38;;;;;;;;;;;;;;;15.89;100.00;100192.88;5092627;28;19924;-77
2022/08/08 05:20:06;;;;;;;;;;;;;;;16.01;100.00;100189.41;5075191;28;19924;-77
2022/08/08 05:22:36;;;;;;;;;;;;;;;16.13;100.00;100189.56;5058830;28;19946;-77
2022/08/08 05:25:04;;;;;;;;;;;;;;;16.24;100.00;100187.34;5058513;28;20023;-77
2022/08/08 05:27:32;;;;;;;;;;;;;;;16.25;100.00;100194.56;5075087;28;20027;-77
2022/08/08 05:29:59;;;;;;;;;;;;;;;16.57;100.00;100193.88;5075255;28;19924;-77
2022/08/08 05:32:33;;;;;;;;;;;;;;;16.89;100.00;100199.59;5058603;28;19925;-77
2022/08/08 05:35:01;;;;;;;;;;;;;;;16.27;100.00;100201.81;5075287;28;19932;-77
2022/08/08 05:37:31;;;;;;;;;;;;;;;16.06;100.00;100203.03;5074980;28;20019;-77
2022/08/08 05:40:00;;;;;;;;;;;;;;;16.69;100.00;100195.25;5041921;28;19924;-77
2022/08/08 05:42:35;;;;;;;;;;;;;;;17.07;100.00;100208.44;5074970;28;19925;-77
2022/08/08 05:45:03;;;;;;;;;;;;;;;17.45;100.00;100201.06;5108730;28;19924;-77
2022/08/08 05:47:32;;;;;;;;;;;;;;;17.67;100.00;100204.13;5075208;28;20383;-77
2022/08/08 05:50:03;;;;;;;;;;;;;;;17.94;100.00;100196.09;5041984;28;19931;-77
2022/08/08 05:52:32;;;;;;;;;;;;;;;18.08;100.00;100209.06;5058103;28;19924;-77
2022/08/08 05:54:59;;;;;;;;;;;;;;;17.44;100.00;100207.16;5058070;28;19925;-77
2022/08/08 05:57:28;;;;;;;;;;;;;;;16.93;100.00;100205.97;5074733;28;19924;-77
2022/08/08 05:59:57;;;;;;;;;;;;;;;17.23;100.00;100207.66;5074523;28;20015;-77
2022/08/08 06:05:32;;;;;;;;;;;;;;;18.25;100.00;100202.09;5058173;28;19947;-77
2022/08/08 06:08:03;;;;;;;;;;;;;;;18.61;100.00;100213.97;5074359;28;20299;-77
2022/08/08 06:10:32;;;;;;;;;;;;;;;18.93;100.00;100210.97;5074358;28;20314;-77
2022/08/08 06:13:00;;;;;;;;;;;;;;;18.81;100.00;100212.53;5057786;28;19932;-77
2022/08/08 06:15:28;;;;;;;;;;;;;;;18.85;100.00;100210.38;5074466;28;19928;-77
2022/08/08 06:17:56;;;;;;;;;;;;;;;19.00;100.00;100220.03;5057699;28;19925;-77
2022/08/08 06:20:23;;;;;;;;;;;;;;;19.19;100.00;100223.88;5057464;28;19948;-77
2022/08/08 06:22:50;;;;;;;;;;;;;;;19.20;100.00;100220.59;5074119;28;19990;-77
2022/08/08 06:25:19;;;;;;;;;;;;;;;19.33;100.00;100215.72;5091460;28;19925;-77
2022/08/08 06:27:51;;;;;;;;;;;;;;;19.48;100.00;100216.81;5057360;28;20050;-77
2022/08/08 06:30:19;;;;;;;;;;;;;;;19.78;100.00;100223.88;5074082;28;20387;-77
2022/08/08 06:32:51;;;;;;;;;;;;;;;20.02;100.00;100221.44;5074097;28;19983;-77
2022/08/08 06:35:22;;;;;;;;;;;;;;;20.32;100.00;100226.44;5057429;28;19928;-77
2022/08/08 06:37:57;;;;;;;;;;;;;;;20.61;100.00;100221.28;5057955;28;20322;-77
2022/08/08 06:40:30;;;;;;;;;;;;;;;20.83;100.00;100219.97;5057221;28;19925;-77
2022/08/08 06:43:08;;;;;;;;;;;;;;;20.70;100.00;100235.53;5073923;28;19960;-77
2022/08/08 06:45:56;;;;;;;;;;;;;;;21.12;100.00;100226.13;5073630;28;19924;-77
2022/08/08 06:48:23;;;;;;;;;;;;;;;21.38;100.00;100229.53;5040467;28;19932;-77
2022/08/08 06:50:52;;;;;;;;;;;;;;;21.64;100.00;100228.03;5073350;28;19932;-77
2022/08/08 06:53:21;;;;;;;;;;;;;;;21.86;100.00;100231.56;5040394;28;20322;-77
2022/08/08 06:55:53;;;;;;;;;;;;;;;21.35;100.00;100236.16;5073579;28;20364;-77
2022/08/08 06:58:20;;;;;;;;;;;;;;;21.01;100.00;100239.19;5074760;28;19925;-77
2022/08/08 07:00:49;;;;;;;;;;;;;;;21.53;100.00;100233.38;5073428;28;19933;-77
2022/08/08 07:03:25;;;;;;;;;;;;;;;22.02;100.00;100227.63;5040092;28;19932;-77
2022/08/08 07:05:54;;;;;;;;;;;;;;;22.06;100.00;100223.38;5073362;28;19931;-77
2022/08/08 07:08:28;;;;;;;;;;;;;;;22.43;100.00;100222.06;5056602;28;19924;-78
2022/08/08 07:10:57;;;;;;;;;;;;;;;22.62;100.00;100229.34;5072846;28;19931;-77
2022/08/08 07:13:29;;;;;;;;;;;;;;;22.86;100.00;100233.09;5056545;28;19924;-77
2022/08/08 07:16:11;;;;;;;;;;;;;;;23.14;100.00;100228.84;5056553;28;19925;-77
2022/08/08 07:19:07;;;;;;;;;;;;;;;23.37;100.00;100238.00;5073105;28;20448;-78
2022/08/08 07:21:59;;;;;;;;;;;;;;;23.40;100.00;100239.88;5073075;28;19931;-77
2022/08/08 07:24:36;;;;;;;;;;;;;;;23.45;100.00;100237.13;5039801;28;20306;-78
2022/08/08 07:27:04;;;;;;;;;;;;;;;23.45;100.00;100239.19;5072988;28;19924;-77
2022/08/08 07:29:35;;;;;;;;;;;;;;;23.49;100.00;100239.81;5056391;28;19931;-78
2022/08/08 07:32:05;;;;;;;;;;;;;;;23.93;100.00;100232.25;5056289;28;19963;-78
2022/08/08 07:34:35;;;;;;;;;;;;;;;24.07;100.00;100235.16;5072942;28;20376;-78
2022/08/08 07:37:09;;;;;;;;;;;;;;;24.56;100.00;100228.88;5072792;28;20328;-78
2022/08/08 07:39:39;;;;;;;;;;;;;;;24.75;100.00;100236.00;5056267;28;20298;-77
2022/08/08 07:42:14;;;;;;;;;;;;;;;24.94;100.00;100237.38;5072905;28;19932;-78
2022/08/08 07:44:42;;;;;;;;;;;;;;;25.10;100.00;100245.44;5072782;28;20023;-78
2022/08/08 07:47:11;;;;;;;;;;;;;;;24.99;100.00;100251.00;5056050;28;19968;-78
2022/08/08 07:49:41;;;;;;;;;;;;;;;24.67;100.00;100255.59;5089178;28;19928;-78
2022/08/08 07:52:10;;;;;;;;;;;;;;;24.80;100.00;100252.47;5055845;28;19924;-78
2022/08/08 07:55:07;;;;;;;;;;;;;;;25.10;100.00;100250.38;5072763;28;20334;-78
2022/08/08 07:57:54;;;;;;;;;;;;;;;25.27;100.00;100254.28;5051671;28;19925;-78
2022/08/08 08:00:23;;;;;;;;;;;;;;;25.51;100.00;100246.38;5072615;28;19928;-76
2022/08/08 08:02:59;;;;;;;;;;;;;;;25.48;100.00;100253.09;5072522;28;20272;-77
2022/08/08 08:05:28;;;;;;;;;;;;;;;25.53;100.00;100261.78;5072628;28;20540;-79
2022/08/08 08:08:09;;;;;;;;;;;;;;;25.57;100.00;100261.56;5055809;28;20011;-79
2022/08/08 08:10:37;;;;;;;;;;;;;;;25.20;100.00;100266.16;5106345;28;20007;-79
2022/08/08 08:13:19;;;;;;;;;;;;;;;24.57;100.00;100265.53;5072651;28;19924;-79
2022/08/08 08:16:10;;;;;;;;;;;;;;;23.80;100.00;100265.94;5056146;28;19924;-79
2022/08/08 08:18:43;;;;;;;;;;;;;;;24.75;100.00;100264.56;5055709;28;19951;-79
2022/08/08 08:21:16;;;;;;;;;;;;;;;25.37;100.00;100264.38;5072469;28;19939;-79
2022/08/08 08:23:44;;;;;;;;;;;;;;;25.64;100.00;100261.91;5057206;28;20344;-79
2022/08/08 08:26:13;;;;;;;;;;;;;;;25.77;100.00;100253.81;5076720;28;19928;-79
2022/08/08 08:28:40;;;;;;;;;;;;;;;25.68;100.00;100251.06;5059484;28;19931;-79
2022/08/08 08:31:09;;;;;;;;;;;;;;;25.78;100.00;100257.47;5076483;28;19924;-79
2022/08/08 08:33:38;;;;;;;;;;;;;;;25.80;100.00;100258.53;5076740;28;19928;-79
2022/08/08 08:36:08;;;;;;;;;;;;;;;25.89;100.00;100249.81;5093630;28;19930;-79
2022/08/08 08:38:37;;;;;;;;;;;;;;;25.89;100.00;100264.13;5059402;28;19956;-79
2022/08/08 08:41:13;;;;;;;;;;;;;;;25.95;100.00;100264.97;5077290;28;19924;-79
2022/08/08 08:43:45;;;;;;;;;;;;;;;25.98;100.00;100257.44;5076207;28;20046;-80
2022/08/08 08:46:13;;;;;;;;;;;;;;;25.41;100.00;100265.75;5076029;28;20375;-80
2022/08/08 08:48:42;;;;;;;;;;;;;;;25.51;100.00;100263.53;5059466;28;19974;-79
2022/08/08 08:51:11;;;;;;;;;;;;;;;25.64;100.00;100256.19;5061963;28;19924;-79
2022/08/08 08:53:45;;;;;;;;;;;;;;;25.76;100.00;100251.44;5055834;28;19925;-79
2022/08/08 08:56:18;;;;;;;;;;;;;;;25.73;100.00;100258.97;5072715;28;20415;-79
2022/08/08 08:58:49;;;;;;;;;;;;;;;25.50;100.00;100265.63;5023126;28;19925;-79
2022/08/08 09:01:37;;;;;;;;;;;;;;;25.36;100.00;100269.31;5055889;28;20332;-79
2022/08/08 09:04:12;;;;;;;;;;;;;;;25.34;100.00;100266.16;5072460;28;19951;-79
2022/08/08 09:06:40;;;;;;;;;;;;;;;24.79;100.00;100262.31;5089175;28;19925;-79
2022/08/08 09:09:13;;;;;;;;;;;;;;;25.06;100.00;100267.75;5072170;28;20371;-79
2022/08/08 09:11:43;;;;;;;;;;;;;;;25.44;100.00;100261.09;5055841;28;19990;-79
2022/08/08 09:14:10;;;;;;;;;;;;;;;25.40;100.00;100264.16;5072375;28;20372;-79
2022/08/08 09:16:38;;;;;;;;;;;;;;;25.86;100.00;100262.25;5072045;28;19925;-79
2022/08/08 09:19:05;;;;;;;;;;;;;;;25.71;100.00;100260.72;5088761;28;19975;-79
2022/08/08 09:21:33;;;;;;;;;;;;;;;26.10;100.00;100265.72;5071837;28;20362;-79
2022/08/08 09:24:01;;;;;;;;;;;;;;;25.87;100.00;100252.38;5088918;28;19925;-79
2022/08/08 09:26:28;;;;;;;;;;;;;;;25.80;100.00;100257.72;5071959;28;20342;-79
2022/08/08 09:28:56;;;;;;;;;;;;;;;25.78;100.00;100261.09;5038987;28;19928;-79
2022/08/08 09:31:33;;;;;;;;;;;;;;;25.84;100.00;100256.22;5055254;28;19925;-79
2022/08/08 09:34:03;;;;;;;;;;;;;;;25.71;100.00;100247.22;5071135;28;20406;-79
2022/08/08 09:36:32;;;;;;;;;;;;;;;26.07;100.00;100243.81;5038348;28;20023;-78
2022/08/08 09:38:59;;;;;;;;;;;;;;;26.16;100.00;100234.28;5088354;28;19983;-79
2022/08/08 09:41:37;;;;;;;;;;;;;;;26.20;100.00;100237.72;5071182;28;19929;-79
2022/08/08 09:44:10;;;;;;;;;;;;;;;26.02;100.00;100241.66;5055106;28;20383;-79
2022/08/08 09:46:40;;;;;;;;;;;;;;;25.94;100.00;100234.78;5071713;28;19932;-80
2022/08/08 09:49:09;;;;;;;;;;;;;;;26.48;100.00;100235.19;5038476;28;19971;-80
2022/08/08 09:51:38;;;;;;;;;;;;;;;26.68;100.00;100226.56;5038601;28;19925;-79
2022/08/08 09:54:05;;;;;;;;;;;;;;;27.01;100.00;100229.72;5073925;28;20260;-80
2022/08/08 09:56:36;;;;;;;;;;;;;;;26.87;100.00;100224.94;5076141;28;19925;-80
2022/08/08 09:59:04;;;;;;;;;;;;;;;26.74;100.00;100221.66;5074694;28;19967;-79
2022/08/08 10:01:44;;;;;;;;;;;;;;;26.79;100.00;100223.78;5074914;28;19925;-79
2022/08/08 10:04:13;;;;;;;;;;;;;;;26.49;100.00;100234.69;5058196;28;19956;-79
2022/08/08 10:06:42;;;;;;;;;;;;;;;26.48;100.00;100222.44;5041382;28;20023;-79
2022/08/08 10:09:09;;;;;;;;;;;;;;;26.26;100.00;100227.88;5091391;28;19924;-78
2022/08/08 10:11:37;;;;;;;;;;;;;;;26.63;100.00;100221.56;5057859;28;20299;-78
2022/08/08 10:14:06;;;;;;;;;;;;;;;26.71;100.00;100216.94;5074378;28;20481;-78
2022/08/08 10:16:37;;;;;;;;;;;;;;;25.38;100.00;100234.47;5041098;28;19978;-78
2022/08/08 10:19:05;;;;;;;;;;;;;;;25.97;100.00;100228.03;5057529;28;19931;-78
2022/08/08 10:21:34;;;;;;;;;;;;;;;25.99;100.00;100222.63;5057790;28;19924;-78
2022/08/08 10:24:02;;;;;;;;;;;;;;;25.95;100.00;100224.88;5057880;28;19924;-78
2022/08/08 10:26:36;;;;;;;;;;;;;;;25.61;100.00;100222.09;5073754;28;20338;-77
2022/08/08 10:29:04;;;;;;;;;;;;;;;25.54;100.00;100223.28;5073535;28;19928;-79
2022/08/08 10:34:19;;;;;;;;;;;;;;;25.97;100.00;100212.94;5074276;28;19932;-79
2022/08/08 10:36:47;;;;;;;;;;;;;;;25.52;100.00;100214.41;5073385;28;20391;-79
2022/08/08 10:39:40;;;;;;;;;;;;;;;26.07;100.00;100206.59;5073458;28;20364;-79
2022/08/08 10:42:10;;;;;;;;;;;;;;;26.21;100.00;100208.59;5037967;28;19947;-79
2022/08/08 10:44:37;;;;;;;;;;;;;;;26.63;100.00;100202.28;5073652;28;20000;-79
2022/08/08 10:47:16;;;;;;;;;;;;;;;26.22;100.00;100204.41;5072833;28;20386;-79
2022/08/08 10:49:49;;;;;;;;;;;;;;;25.93;100.00;100203.78;5057069;28;19952;-79
2022/08/08 10:52:22;;;;;;;;;;;;;;;25.49;100.00;100209.66;5073624;28;19974;-78
2022/08/08 10:54:57;;;;;;;;;;;;;;;25.15;100.00;100204.72;5073451;28;19963;-78
2022/08/08 10:57:24;;;;;;;;;;;;;;;24.98;100.00;100208.59;5056665;28;19924;-78
2022/08/08 10:59:52;;;;;;;;;;;;;;;25.13;100.00;100204.41;5073647;28;19931;-78
2022/08/08 11:02:23;;;;;;;;;;;;;;;25.01;100.00;100196.19;5073306;28;19959;-78
2022/08/08 11:04:50;;;;;;;;;;;;;;;25.49;100.00;100186.78;5040292;28;19931;-78
2022/08/08 11:07:28;;;;;;;;;;;;;;;26.13;100.00;100187.38;5089222;28;19931;-79
2022/08/08 11:09:59;;;;;;;;;;;;;;;26.59;100.00;100186.56;5074721;28;20019;-79
2022/08/08 11:12:26;;;;;;;;;;;;;;;25.75;100.00;100181.16;5073102;28;20279;-79
2022/08/08 11:14:59;;;;;;;;;;;;;;;26.17;100.00;100182.22;5073911;28;19924;-79
2022/08/08 11:17:27;;;;;;;;;;;;;;;26.64;100.00;100177.25;5056902;28;19931;-80
2022/08/08 11:19:54;;;;;;;;;;;;;;;27.10;100.00;100180.78;5074602;28;20015;-80
2022/08/08 11:22:23;;;;;;;;;;;;;;;26.85;100.00;100184.50;5074794;28;19931;-81
2022/08/08 11:24:51;;;;;;;;;;;;;;;27.21;100.00;100186.59;5057239;28;19925;-80
2022/08/08 11:27:19;;;;;;;;;;;;;;;27.17;100.00;100177.44;5074241;28;19932;-80
2022/08/08 11:29:48;;;;;;;;;;;;;;;26.97;100.00;100180.41;5056742;28;20314;-81
2022/08/08 11:32:16;;;;;;;;;;;;;;;26.31;100.00;100189.94;5073440;28;19939;-80
2022/08/08 11:34:45;;;;;;;;;;;;;;;26.30;100.00;100193.31;5074730;28;20023;-80
2022/08/08 11:37:26;;;;;;;;;;;;;;;26.51;100.00;100179.72;5074548;28;20338;-80
2022/08/08 11:39:54;;;;;;;;;;;;;;;25.98;100.00;100180.97;5074409;28;19982;-79
2022/08/08 11:42:23;;;;;;;;;;;;;;;25.13;100.00;100192.97;5074198;28;19929;-80
2022/08/08 11:44:51;;;;;;;;;;;;;;;25.56;100.00;100183.50;5073270;28;19928;-80
2022/08/08 11:47:19;;;;;;;;;;;;;;;25.82;100.00;100180.72;5073079;28;19971;-80
2022/08/08 11:49:46;;;;;;;;;;;;;;;26.03;100.00;100176.59;5073221;28;19924;-80
2022/08/08 11:52:14;;;;;;;;;;;;;;;25.94;100.00;100179.56;5056235;28;19925;-80
2022/08/08 11:54:42;;;;;;;;;;;;;;;26.49;100.00;100172.41;5056126;28;19925;-80
2022/08/08 11:57:10;;;;;;;;;;;;;;;26.93;100.00;100165.53;5072792;28;20302;-80
2022/08/08 11:59:41;;;;;;;;;;;;;;;26.80;100.00;100162.28;5072590;28;19928;-79
2022/08/08 12:02:08;;;;;;;;;;;;;;;27.04;100.00;100179.94;5072754;28;19924;-78
2022/08/08 12:05:10;;;;;;;;;;;;;;;26.89;100.00;100180.09;5073762;28;20318;-78
2022/08/08 12:07:44;;;;;;;;;;;;;;;26.18;100.00;100186.69;5072573;28;20354;-79
2022/08/08 12:10:12;;;;;;;;;;;;;;;26.91;100.00;100183.25;5071832;28;19924;-78
2022/08/08 12:12:40;;;;;;;;;;;;;;;26.49;100.00;100165.91;5072432;28;20023;-78
2022/08/08 12:15:07;;;;;;;;;;;;;;;27.51;100.00;100173.50;5072373;28;20299;-79
2022/08/08 12:17:35;;;;;;;;;;;;;;;27.80;100.00;100164.53;5055598;28;19924;-79
2022/08/08 12:20:03;;;;;;;;;;;;;;;27.72;100.00;100169.19;5055750;28;19932;-79
2022/08/08 12:22:31;;;;;;;;;;;;;;;26.52;100.00;100175.56;5072242;28;19967;-79
2022/08/08 12:25:02;;;;;;;;;;;;;;;26.32;100.00;100174.31;5072343;28;19972;-79
2022/08/08 12:27:39;;;;;;;;;;;;;;;26.48;100.00;100163.53;5072245;28;20364;-79
2022/08/08 12:30:06;;;;;;;;;;;;;;;27.29;100.00;100165.56;5072348;28;19924;-79
2022/08/08 12:32:44;;;;;;;;;;;;;;;26.49;100.00;100154.44;5072055;28;19994;-79
2022/08/08 12:35:18;;;;;;;;;;;;;;;26.37;100.00;100167.84;5039037;28;19924;-79
2022/08/08 12:37:57;;;;;;;;;;;;;;;26.45;100.00;100160.38;5073638;28;20253;-79
2022/08/08 12:40:35;;;;;;;;;;;;;;;26.05;100.00;100159.69;5089123;28;19924;-79
2022/08/08 12:43:02;;;;;;;;;;;;;;;26.71;100.00;100159.59;5072256;28;19925;-79
2022/08/08 12:45:33;;;;;;;;;;;;;;;27.19;100.00;100144.06;5071666;28;20482;-79
2022/08/08 12:48:01;;;;;;;;;;;;;;;27.30;100.00;100144.19;5072266;28;19925;-79
2022/08/08 12:50:39;;;;;;;;;;;;;;;27.16;100.00;100150.84;5072171;28;19970;-79
2022/08/08 12:53:22;;;;;;;;;;;;;;;27.39;100.00;100146.03;5071692;28;19932;-79
2022/08/08 12:55:54;;;;;;;;;;;;;;;27.18;100.00;100138.84;5072049;28;19970;-79
2022/08/08 12:58:49;;;;;;;;;;;;;;;26.72;100.00;100149.72;5072166;28;19950;-79
2022/08/08 13:01:16;;;;;;;;;;;;;;;25.78;100.00;100155.16;5039556;28;19978;-78
2022/08/08 13:03:45;;;;;;;;;;;;;;;25.68;100.00;100159.47;5073293;28;19974;-79
2022/08/08 13:06:13;;;;;;;;;;;;;;;25.62;100.00;100160.69;5072978;28;19931;-78
2022/08/08 13:08:41;;;;;;;;;;;;;;;25.89;100.00;100163.91;5055238;28;19978;-78
2022/08/08 13:11:20;;;;;;;;;;;;;;;25.55;100.00;100159.03;5074963;28;19924;-78
2022/08/08 13:13:51;;;;;;;;;;;;;;;26.49;100.00;100160.19;5076861;28;20291;-78